Rolling Prairie, IN (46371)

4:11 AM CST on February 14, 2016 (GMT -0600)
RangeWood Subdivision-Garage Mahal | | Change Station
CLOSE
Current Station
Personal Weather Station
Location: La Porte, IN
Elevation: 820 ft
Nearby Weather Stations

Elev 820 ft 41.68 °N, 86.69 °W | Updated 10 seconds ago

Mostly Cloudy
Mostly Cloudy
1.0 °F
Feels Like 1 °F
N
0.0
Wind Variable Wind from South
Gusts 0.0 mph

Today
High -- | Low -- °F
--% Chance of Precip.
Yesterday
High -- | Low -- °F
Precip. -- in
Pressure 30.42 in
Visibility 10.0 miles
Clouds Clear
Windchill 1 °F
Dew Point -7 °F
Humidity 67%
Rainfall 0.00 in
Snow Depth Not available.
6:43 AM 5:18 PM
Waxing Crescent, 40% visible
METAR KPPO 140955Z AUTO 00000KT 10SM CLR M17/M19 A3042 RMK AO2 T11751193
Pressure 30.42 in
Visibility 10.0 miles
Clouds Clear
Windchill 1 °F
Dew Point -7 °F
Humidity 67%
Rainfall 0.00 in
Snow Depth Not available.
6:43 AM 5:18 PM
Waxing Crescent, 40% visible
METAR KPPO 140955Z AUTO 00000KT 10SM CLR M17/M19 A3042 RMK AO2 T11751193

10-Day Weather Forecast

Almanac

Astronomy

Feb. 14, 2016 Rise Set
Actual Time
Civil Twilight
Nautical Twilight
Astronomical Twilight
Moon
Length of Visible Light
Length of Day
Tomorrow will be .
, % of the Moon is Illuminated

Today's Extremes

State Highs State Lows

Community

WunderPhotos

Upload Photos

1,892,765 photos uploaded!

WunderBlog® & News

Nearby

Air Quality

  Air Quality AQ Index Pollutant
Not available.

Snow Depth

Station Depth Elevation

Earthquake Activity

City Distance Mag. Time & Date
Minimum magnitude displayed is 2.5.

Coastal Water Temperatures

Place Temperature

Stations

Nearby Weather Stations

Station Location Temp. Windchill Dew Point Humidity Wind Precip. Elev Updated Type
                   

Watches & Warnings

There are currently no watches in effect.